createdAt,value
2024-04-07T00:02:32.908Z,95226.06
2024-04-07T00:05:34.817Z,95222.28
2024-04-07T00:08:36.792Z,95229.19
2024-04-07T00:11:38.565Z,95235.63
2024-04-07T00:14:40.535Z,95245.97
2024-04-07T00:17:42.332Z,95238.28
2024-04-07T00:20:44.158Z,95238.28
2024-04-07T00:23:45.928Z,95247.84
2024-04-07T00:26:47.828Z,95247.84
2024-04-07T00:29:50.030Z,95254.28
2024-04-07T00:32:52.249Z,95253.31
2024-04-07T00:36:03.783Z,95257.53
2024-04-07T00:39:05.593Z,95250.44
2024-04-07T00:42:07.397Z,95256.56
2024-04-07T00:45:09.294Z,95249.47
2024-04-07T00:48:11.164Z,95263.78
2024-04-07T00:51:13.158Z,95257.66
2024-04-07T00:54:14.986Z,95259.84
2024-04-07T00:57:18.141Z,95265.16
2024-04-07T01:00:20.394Z,95269.41
2024-04-07T01:03:22.209Z,95263.59
2024-04-07T01:06:24.018Z,95263.28
2024-04-07T01:09:27.767Z,95260.41
2024-04-07T01:12:29.535Z,95252.16
2024-04-07T01:15:31.500Z,95242.53
2024-04-07T01:18:33.310Z,95244.94
2024-04-07T01:21:35.062Z,95246.00
2024-04-07T01:24:36.872Z,95237.53
2024-04-07T01:27:38.653Z,95255.06
2024-04-07T01:30:40.742Z,95249.22
2024-04-07T01:33:42.548Z,95243.41
2024-04-07T01:36:45.858Z,95248.25
2024-04-07T01:39:47.701Z,95254.38
2024-04-07T01:42:49.626Z,95245.22
2024-04-07T01:45:51.380Z,95253.41
2024-04-07T01:48:53.138Z,95253.09
2024-04-07T01:51:54.930Z,95247.78
2024-04-07T01:54:57.491Z,95252.00
2024-04-07T01:57:59.277Z,95250.94
2024-04-07T02:01:01.083Z,95256.75
2024-04-07T02:04:02.995Z,95251.13
2024-04-07T02:07:04.832Z,95254.06
2024-04-07T02:10:07.739Z,95250.63
2024-04-07T02:13:09.528Z,95260.19
2024-04-07T02:16:11.610Z,95259.41
2024-04-07T02:19:14.620Z,95264.72
2024-04-07T02:22:16.486Z,95262.84
2024-04-07T02:25:18.305Z,95257.81
2024-04-07T02:28:20.131Z,95258.63
2024-04-07T02:31:21.988Z,95260.00
2024-04-07T02:34:23.745Z,95254.69
2024-04-07T02:37:25.536Z,95248.88
2024-04-07T02:40:27.341Z,95240.69
2024-04-07T02:43:29.098Z,95254.69
2024-04-07T02:46:49.815Z,95254.69
2024-04-07T02:49:51.657Z,95243.22
2024-04-07T02:52:53.452Z,95246.50
2024-04-07T02:55:55.393Z,95246.00
2024-04-07T02:58:57.262Z,95258.53
2024-04-07T03:01:59.021Z,95255.88
2024-04-07T03:05:00.844Z,95255.88
2024-04-07T03:08:02.616Z,95256.44
2024-04-07T03:11:06.230Z,95263.38
2024-04-07T03:14:08.149Z,95269.75
2024-04-07T03:17:10.237Z,95274.03
2024-04-07T03:20:12.039Z,95274.91
2024-04-07T03:23:14.129Z,95266.31
2024-04-07T03:26:15.909Z,95269.97
2024-04-07T03:29:17.670Z,95270.66
2024-04-07T03:32:19.476Z,95276.91
2024-04-07T03:35:21.267Z,95282.25
2024-04-07T03:38:23.086Z,95285.69
2024-04-07T03:41:25.203Z,95290.22
2024-04-07T03:44:27.527Z,95300.09
2024-04-07T03:47:29.331Z,95305.44
2024-04-07T03:50:31.126Z,95305.44
2024-04-07T03:53:32.945Z,95303.81
2024-04-07T03:56:34.718Z,95304.59
2024-04-07T03:59:36.524Z,95303.03
2024-04-07T04:02:38.341Z,95305.19
2024-04-07T04:05:40.379Z,95308.63
2024-04-07T04:08:42.165Z,95314.78
2024-04-07T04:11:44.117Z,95311.28
2024-04-07T04:14:46.330Z,95308.94
2024-04-07T04:17:48.759Z,95310.50
2024-04-07T04:20:51.494Z,95311.59
2024-04-07T04:23:53.359Z,95313.16
2024-04-07T04:26:55.198Z,95316.44
2024-04-07T04:29:57.006Z,95318.59
2024-04-07T04:33:01.284Z,95334.88
2024-04-07T04:36:03.163Z,95330.66
2024-04-07T04:39:07.572Z,95331.72
2024-04-07T04:42:09.373Z,95336.75
2024-04-07T04:45:11.487Z,95333.59
2024-04-07T04:48:13.349Z,95332.03
2024-04-07T04:51:15.184Z,95333.13
2024-04-07T04:54:16.974Z,95334.19
2024-04-07T04:57:18.749Z,95326.47
2024-04-07T05:00:20.536Z,95334.69
2024-04-07T05:03:22.530Z,95329.56
2024-04-07T05:06:25.846Z,95327.00
2024-04-07T05:09:27.644Z,95323.25
2024-04-07T05:12:29.431Z,95321.16
2024-04-07T05:15:31.223Z,95323.34
2024-04-07T05:18:33.613Z,95323.75
2024-04-07T05:21:35.467Z,95325.13
2024-04-07T05:24:39.486Z,95332.09
2024-04-07T05:27:42.968Z,95321.75
2024-04-07T05:30:45.207Z,95325.19
2024-04-07T05:33:49.158Z,95332.72
2024-04-07T05:36:50.929Z,95330.69
2024-04-07T05:39:52.807Z,95326.72
2024-04-07T05:42:55.728Z,95331.72
2024-04-07T05:45:58.095Z,95325.81
2024-04-07T05:49:00.032Z,95329.34
2024-04-07T05:52:01.839Z,95333.59
2024-04-07T05:55:03.833Z,95334.19
2024-04-07T05:58:05.692Z,95324.69
2024-04-07T06:01:07.455Z,95328.66
2024-04-07T06:04:09.267Z,95329.00
2024-04-07T06:07:11.096Z,95335.06
2024-04-07T06:10:12.864Z,95341.34
2024-04-07T06:13:16.632Z,95336.38
2024-04-07T06:16:18.557Z,95331.94
2024-04-07T06:19:20.399Z,95336.09
2024-04-07T06:22:22.238Z,95336.97
2024-04-07T06:25:24.103Z,95337.50
2024-04-07T06:28:25.874Z,95329.75
2024-04-07T06:31:27.675Z,95332.41
2024-04-07T06:34:30.428Z,95329.63
2024-04-07T06:37:32.353Z,95338.25
2024-04-07T06:40:34.165Z,95352.97
2024-04-07T06:43:37.145Z,95350.31
2024-04-07T06:46:38.962Z,95349.03
2024-04-07T06:49:40.768Z,95352.97
2024-04-07T06:52:42.608Z,95355.22
2024-04-07T06:55:45.375Z,95361.47
2024-04-07T06:58:47.211Z,95364.63
2024-04-07T07:01:49.031Z,95368.75
2024-04-07T07:04:50.870Z,95371.34
2024-04-07T07:07:52.750Z,95370.56
2024-04-07T07:11:01.930Z,95370.09
2024-04-07T07:14:03.797Z,95368.84
2024-04-07T07:17:06.264Z,95378.94
2024-04-07T07:20:08.693Z,95379.91
2024-04-07T07:23:10.466Z,95381.97
2024-04-07T07:26:12.282Z,95371.81
2024-04-07T07:29:14.244Z,95381.38
2024-04-07T07:32:16.642Z,95376.75
2024-04-07T07:35:18.597Z,95381.25
2024-04-07T07:38:20.495Z,95383.44
2024-04-07T07:41:22.278Z,95384.34
2024-04-07T07:44:24.053Z,95387.94
2024-04-07T07:47:26.024Z,95376.66
2024-04-07T07:50:27.829Z,95388.41
2024-04-07T07:53:33.189Z,95386.38
2024-04-07T07:56:34.969Z,95380.50
2024-04-07T07:59:37.398Z,95393.56
2024-04-07T08:02:40.926Z,95376.66
2024-04-07T08:05:42.774Z,95384.34
2024-04-07T08:08:44.823Z,95386.22
2024-04-07T08:11:46.585Z,95384.84
2024-04-07T08:14:48.548Z,95383.75
2024-04-07T08:17:50.456Z,95388.28
2024-04-07T08:20:52.370Z,95387.50
2024-04-07T08:23:54.139Z,95398.66
2024-04-07T08:26:56.276Z,95393.63
2024-04-07T08:29:58.052Z,95389.25
2024-04-07T08:33:00.525Z,95396.78
2024-04-07T08:36:03.525Z,95398.34
2024-04-07T08:39:05.496Z,95398.34
2024-04-07T08:42:10.950Z,95395.88
2024-04-07T08:45:13.539Z,95392.06
2024-04-07T08:48:18.529Z,95396.59
2024-04-07T08:51:20.387Z,95397.53
2024-04-07T08:54:23.219Z,95399.19
2024-04-07T08:57:25.632Z,95396.34
2024-04-07T09:00:29.012Z,95398.09
2024-04-07T09:03:32.186Z,95394.84
2024-04-07T09:06:34.539Z,95386.09
2024-04-07T09:09:37.556Z,95388.28
2024-04-07T09:12:39.795Z,95389.38
2024-04-07T09:15:41.559Z,95394.84
2024-04-07T09:18:43.787Z,95397.53
2024-04-07T09:21:45.726Z,95391.13
2024-04-07T09:24:47.838Z,95403.38
2024-04-07T09:27:49.695Z,95408.91
2024-04-07T09:30:51.560Z,95408.19
2024-04-07T09:33:53.384Z,95401.28
2024-04-07T09:36:55.287Z,95408.13
2024-04-07T09:39:57.119Z,95413.72
2024-04-07T09:43:01.002Z,95419.47
2024-04-07T09:46:06.619Z,95426.97
2024-04-07T09:49:10.158Z,95426.00
2024-04-07T09:52:16.303Z,95418.31
2024-04-07T09:55:18.872Z,95418.63
2024-04-07T09:58:24.806Z,95422.38
2024-04-07T10:01:27.035Z,95418.63
2024-04-07T10:04:29.470Z,95419.88
2024-04-07T10:07:31.795Z,95420.19
2024-04-07T10:10:33.663Z,95431.94
2024-04-07T10:13:35.479Z,95438.09
2024-04-07T10:16:37.682Z,95419.22
2024-04-07T10:19:46.330Z,95442.16
2024-04-07T10:22:49.095Z,95443.25
2024-04-07T10:25:51.155Z,95444.31
2024-04-07T10:28:54.652Z,95442.75
2024-04-07T10:31:56.441Z,95445.91
2024-04-07T10:35:13.918Z,95449.19
2024-04-07T10:38:15.774Z,95448.38
2024-04-07T10:41:34.297Z,95464.41
2024-04-07T10:44:36.218Z,95471.31
2024-04-07T10:47:38.094Z,95474.78
2024-04-07T10:50:40.527Z,95471.59
2024-04-07T10:53:42.440Z,95480.69
2024-04-07T10:56:44.275Z,95483.09
2024-04-07T10:59:46.224Z,95470.31
2024-04-07T11:02:48.095Z,95479.59
2024-04-07T11:05:50.827Z,95478.81
2024-04-07T11:08:53.014Z,95486.53
2024-04-07T11:11:58.992Z,95490.28
2024-04-07T11:15:00.861Z,95490.28
2024-04-07T11:18:16.615Z,95488.03
2024-04-07T11:21:20.231Z,95500.47
2024-04-07T11:24:22.253Z,95503.13
2024-04-07T11:27:24.021Z,95503.41
2024-04-07T11:30:34.191Z,95492.25
2024-04-07T11:33:36.440Z,95493.84
2024-04-07T11:36:38.318Z,95486.63
2024-04-07T11:39:46.021Z,95481.28
2024-04-07T11:42:48.233Z,95479.72
2024-04-07T11:45:50.119Z,95479.72
2024-04-07T11:48:51.968Z,95483.47
2024-04-07T11:51:53.792Z,95481.09
2024-04-07T11:54:55.551Z,95480.31
2024-04-07T11:57:57.355Z,95475.75
2024-04-07T12:00:59.145Z,95472.31
2024-04-07T12:04:01.315Z,95468.56
2024-04-07T12:07:03.233Z,95469.63
2024-04-07T12:10:05.281Z,95464.31
2024-04-07T12:13:07.173Z,95460.53
2024-04-07T12:16:09.319Z,95458.97
2024-04-07T12:19:13.325Z,95460.84
2024-04-07T12:22:19.958Z,95457.41
2024-04-07T12:25:24.268Z,95446.72
2024-04-07T12:28:26.161Z,95449.09
2024-04-07T12:31:28.001Z,95452.06
2024-04-07T12:34:29.867Z,95447.03
2024-04-07T12:37:31.776Z,95440.28
2024-04-07T12:40:33.651Z,95435.94
2024-04-07T12:43:35.509Z,95422.41
2024-04-07T12:46:37.631Z,95426.44
2024-04-07T12:49:39.420Z,95420.97
2024-04-07T12:52:41.356Z,95424.91
2024-04-07T12:55:43.571Z,95425.31
2024-04-07T12:58:45.531Z,95428.94
2024-04-07T13:01:47.298Z,95425.84
2024-04-07T13:04:49.094Z,95426.63
2024-04-07T13:07:51.009Z,95427.72
2024-04-07T13:10:55.074Z,95434.16
2024-04-07T13:13:56.969Z,95423.16
2024-04-07T13:16:59.090Z,95425.06
2024-04-07T13:20:00.905Z,95428.50
2024-04-07T13:23:02.787Z,95427.25
2024-04-07T13:26:04.910Z,95421.13
2024-04-07T13:29:06.820Z,95421.59
2024-04-07T13:32:08.748Z,95430.41
2024-04-07T13:35:12.003Z,95429.44
2024-04-07T13:38:13.849Z,95428.03
2024-04-07T13:41:15.737Z,95421.41
2024-04-07T13:44:17.552Z,95431.78
2024-04-07T13:47:20.118Z,95426.44
2024-04-07T13:50:21.998Z,95432.09
2024-04-07T13:53:23.894Z,95433.53
2024-04-07T13:56:25.661Z,95426.63
2024-04-07T13:59:27.600Z,95426.63
2024-04-07T14:02:29.398Z,95428.03
2024-04-07T14:05:31.399Z,95432.56
2024-04-07T14:08:33.531Z,95446.91
2024-04-07T14:11:35.328Z,95442.66
2024-04-07T14:14:38.950Z,95458.97
2024-04-07T14:17:41.182Z,95460.06
2024-04-07T14:20:45.152Z,95460.06
2024-04-07T14:23:47.069Z,95457.69
2024-04-07T14:26:48.920Z,95456.59
2024-04-07T14:29:50.790Z,95452.84
2024-04-07T14:32:52.691Z,95446.22
2024-04-07T14:35:54.516Z,95453.94
2024-04-07T14:38:57.178Z,95441.38
2024-04-07T14:41:59.131Z,95454.91
2024-04-07T14:45:00.942Z,95458.19
2024-04-07T14:48:02.776Z,95459.16
2024-04-07T14:51:04.646Z,95475.66
2024-04-07T14:54:06.575Z,95486.34
2024-04-07T14:57:08.350Z,95483.38
2024-04-07T15:00:10.726Z,95479.72
2024-04-07T15:03:12.496Z,95488.53
2024-04-07T15:06:16.610Z,95481.00
2024-04-07T15:09:18.384Z,95472.50
2024-04-07T15:12:20.234Z,95476.47
2024-04-07T15:15:22.034Z,95485.75
2024-04-07T15:18:24.901Z,95504.22
2024-04-07T15:21:26.648Z,95515.69
2024-04-07T15:24:30.192Z,95535.31
2024-04-07T15:27:32.138Z,95531.84
2024-04-07T15:30:36.194Z,95521.91
2024-04-07T15:33:39.460Z,95535.56
2024-04-07T15:36:41.321Z,95530.50
2024-04-07T15:39:43.158Z,95531.19
2024-04-07T15:42:44.956Z,95533.97
2024-04-07T15:45:46.840Z,95532.25
2024-04-07T15:48:50.063Z,95531.66
2024-04-07T15:51:55.363Z,95541.72
2024-04-07T15:54:57.471Z,95551.63
2024-04-07T15:57:59.612Z,95548.66
2024-04-07T16:01:06.634Z,95571.09
2024-04-07T16:04:08.398Z,95567.34
2024-04-07T16:07:10.222Z,95571.88
2024-04-07T16:10:12.051Z,95575.66
2024-04-07T16:13:15.443Z,95572.50
2024-04-07T16:16:17.344Z,95581.47
2024-04-07T16:19:19.211Z,95571.41
2024-04-07T16:22:21.328Z,95563.09
2024-04-07T16:27:49.121Z,95555.97
2024-04-07T16:31:04.561Z,95551.75
2024-04-07T16:34:06.600Z,95548.59
2024-04-07T16:37:09.582Z,95546.22
2024-04-07T16:40:11.727Z,95548.09
2024-04-07T16:43:13.607Z,95555.38
2024-04-07T16:46:16.263Z,95555.97
2024-04-07T16:49:18.054Z,95566.84
2024-04-07T16:52:19.884Z,95571.56
2024-04-07T16:55:21.865Z,95581.97
2024-04-07T16:58:23.683Z,95589.38
2024-04-07T17:01:25.615Z,95580.78
2024-04-07T17:04:28.767Z,95584.03
2024-04-07T17:07:30.607Z,95599.38
2024-04-07T17:10:33.129Z,95596.63
2024-04-07T17:13:37.483Z,95592.75
2024-04-07T17:16:42.390Z,95606.47
2024-04-07T17:19:44.216Z,95608.19
2024-04-07T17:22:48.882Z,95610.84
2024-04-07T17:25:51.066Z,95612.72
2024-04-07T17:28:52.854Z,95611.94
2024-04-07T17:31:54.683Z,95621.63
2024-04-07T17:34:56.977Z,95618.66
2024-04-07T17:37:58.758Z,95624.59
2024-04-07T17:41:00.986Z,95632.91
2024-04-07T17:44:02.814Z,95641.31
2024-04-07T17:47:04.916Z,95641.38
2024-04-07T17:50:08.374Z,95641.88
2024-04-07T17:53:10.174Z,95645.16
2024-04-07T17:56:11.981Z,95644.75
2024-04-07T17:59:13.967Z,95644.94
2024-04-07T18:02:15.988Z,95640.28
2024-04-07T18:05:17.924Z,95654.44
2024-04-07T18:08:20.002Z,95662.16
2024-04-07T18:11:22.161Z,95660.56
2024-04-07T18:14:24.187Z,95669.59
2024-04-07T18:17:27.350Z,95674.13
2024-04-07T18:20:29.206Z,95674.41
2024-04-07T18:23:31.489Z,95671.25
2024-04-07T18:26:33.458Z,95678.25
2024-04-07T18:29:35.468Z,95684.47
2024-04-07T18:32:37.348Z,95695.75
2024-04-07T18:35:39.164Z,95690.97
2024-04-07T18:38:41.028Z,95692.34
2024-04-07T18:41:42.841Z,95687.81
2024-04-07T18:44:44.850Z,95687.50
2024-04-07T18:47:46.647Z,95690.78
2024-04-07T18:50:55.003Z,95683.25
2024-04-07T18:53:56.879Z,95681.13
2024-04-07T18:56:58.690Z,95683.84
2024-04-07T19:00:02.537Z,95686.03
2024-04-07T19:03:06.973Z,95693.53
2024-04-07T19:06:09.465Z,95699.16
2024-04-07T19:09:11.243Z,95693.72
2024-04-07T19:12:14.136Z,95696.81
2024-04-07T19:15:16.151Z,95694.63
2024-04-07T19:18:17.969Z,95692.94
2024-04-07T19:21:20.211Z,95687.78
2024-04-07T19:24:22.017Z,95694.97
2024-04-07T19:27:23.874Z,95694.25
2024-04-07T19:30:25.684Z,95690.00
2024-04-07T19:33:28.850Z,95692.19
2024-04-07T19:36:30.788Z,95694.34
2024-04-07T19:39:32.587Z,95694.69
2024-04-07T19:42:35.293Z,95691.31
2024-04-07T19:45:37.138Z,95704.16
2024-04-07T19:48:39.126Z,95701.59
2024-04-07T19:51:41.683Z,95700.28
2024-04-07T19:54:43.512Z,95696.31
2024-04-07T19:57:47.943Z,95698.19
2024-04-07T20:00:50.836Z,95689.97
2024-04-07T20:03:52.647Z,95695.91
2024-04-07T20:06:54.558Z,95685.66
2024-04-07T20:09:56.381Z,95707.63
2024-04-07T20:12:58.527Z,95697.75
2024-04-07T20:16:00.351Z,95704.94
2024-04-07T20:19:02.802Z,95696.16
2024-04-07T20:22:04.627Z,95697.03
2024-04-07T20:25:11.360Z,95703.97
2024-04-07T20:28:14.379Z,95701.28
2024-04-07T20:31:16.178Z,95700.00
2024-04-07T20:34:19.540Z,95699.56
2024-04-07T20:37:21.419Z,95702.00
2024-04-07T20:40:23.953Z,95701.59
2024-04-07T20:43:25.884Z,95708.84
2024-04-07T20:46:28.992Z,95702.72
2024-04-07T20:49:30.782Z,95704.91
2024-04-07T20:52:32.986Z,95696.19
2024-04-07T20:55:34.830Z,95698.84
2024-04-07T20:58:37.378Z,95696.78
2024-04-07T21:01:39.257Z,95700.78
2024-04-07T21:04:41.142Z,95692.25
2024-04-07T21:07:43.039Z,95697.88
2024-04-07T21:10:46.637Z,95692.53
2024-04-07T21:13:48.559Z,95693.91
2024-04-07T21:16:50.346Z,95688.09
2024-04-07T21:19:52.377Z,95698.25
2024-04-07T21:22:54.543Z,95700.41
2024-04-07T21:25:56.506Z,95697.44
2024-04-07T21:28:58.364Z,95691.63
2024-04-07T21:32:00.865Z,95695.88
2024-04-07T21:35:02.732Z,95689.00
2024-04-07T21:38:04.788Z,95692.19
2024-04-07T21:41:08.192Z,95701.25
2024-04-07T21:44:10.319Z,95708.44
2024-04-07T21:47:12.105Z,95702.31
2024-04-07T21:50:14.020Z,95701.53
2024-04-07T21:53:15.856Z,95704.47
2024-04-07T21:56:17.720Z,95697.56
2024-04-07T21:59:19.589Z,95693.31
2024-04-07T22:02:21.776Z,95697.06
2024-04-07T22:05:31.654Z,95689.66
2024-04-07T22:08:41.235Z,95681.22
2024-04-07T22:11:43.337Z,95693.41
2024-04-07T22:14:45.291Z,95691.81
2024-04-07T22:17:47.290Z,95678.78
2024-04-07T22:20:52.698Z,95688.66
2024-04-07T22:23:54.763Z,95687.88
2024-04-07T22:27:00.849Z,95690.81
2024-04-07T22:30:02.698Z,95690.03
2024-04-07T22:33:04.606Z,95695.59
2024-04-07T22:36:08.899Z,95692.44
2024-04-07T22:39:12.006Z,95677.31
2024-04-07T22:42:15.087Z,95681.00
2024-04-07T22:45:16.979Z,95684.75
2024-04-07T22:48:18.768Z,95674.88
2024-04-07T22:51:20.532Z,95680.50
2024-04-07T22:54:22.344Z,95677.03
2024-04-07T22:57:24.294Z,95673.88
2024-04-07T23:00:26.159Z,95676.53
2024-04-07T23:03:28.876Z,95671.00
2024-04-07T23:06:30.754Z,95678.69
2024-04-07T23:09:33.253Z,95675.81
2024-04-07T23:12:35.141Z,95670.50
2024-04-07T23:15:37.009Z,95675.81
2024-04-07T23:18:38.873Z,95669.97
2024-04-07T23:21:40.682Z,95670.25
2024-04-07T23:24:42.462Z,95669.75
2024-04-07T23:27:44.882Z,95667.59
2024-04-07T23:30:46.685Z,95669.44
2024-04-07T23:33:48.475Z,95669.75
2024-04-07T23:36:50.342Z,95670.81
2024-04-07T23:39:52.408Z,95660.16
2024-04-07T23:42:54.359Z,95673.97
2024-04-07T23:45:56.326Z,95665.00
2024-04-07T23:48:59.115Z,95666.56
2024-04-07T23:52:00.924Z,95660.47
2024-04-07T23:55:02.688Z,95666.56
2024-04-07T23:58:05.175Z,95662.41
